Time;durP1;ratioP1;P1;durP2;ratioP2;P2;SDS_P1;SDS_P2;PMS_P1;PMS_P2;Temp;Humidity;BMP_temperature;BMP_pressure;BME280_temperature;BME280_humidity;BME280_pressure;Samples;Min_cycle;Max_cycle;Signal;HPM_P1;HPM_P2
2022/10/13 00:01:23;;;;;;;14.63;9.20;;;11.30;68.60;;;;;;5134462;27;20046;-68
2022/10/13 00:03:49;;;;;;;15.15;10.45;;;11.30;68.60;;;;;;5134491;27;20478;-69
2022/10/13 00:06:18;;;;;;;12.82;9.15;;;11.30;68.60;;;;;;5134338;27;20046;-68
2022/10/13 00:08:44;;;;;;;12.80;8.07;;;11.30;68.70;;;;;;5134762;27;20114;-68
2022/10/13 00:11:11;;;;;;;17.95;11.40;;;11.30;68.60;;;;;;5134652;27;20039;-68
2022/10/13 00:13:37;;;;;;;20.40;12.55;;;11.30;68.70;;;;;;5117143;27;20114;-68
2022/10/13 00:16:03;;;;;;;19.92;11.48;;;11.30;68.80;;;;;;5134437;27;20117;-68
2022/10/13 00:18:29;;;;;;;23.30;11.68;;;11.20;68.80;;;;;;5134539;27;20123;-68
2022/10/13 00:20:54;;;;;;;19.48;11.35;;;11.30;69.00;;;;;;5150549;27;20085;-68
2022/10/13 00:23:20;;;;;;;21.20;11.52;;;11.30;69.10;;;;;;5134613;27;20110;-68
2022/10/13 00:25:48;;;;;;;16.92;11.38;;;11.20;69.10;;;;;;5134354;27;20414;-69
2022/10/13 00:28:16;;;;;;;21.25;12.35;;;11.20;69.30;;;;;;5130957;27;20036;-69
2022/10/13 00:30:42;;;;;;;18.38;11.85;;;11.20;69.40;;;;;;5134139;27;20042;-69
2022/10/13 00:33:09;;;;;;;17.38;10.90;;;11.20;69.50;;;;;;5133293;27;20036;-69
2022/10/13 00:35:44;;;;;;;26.70;13.20;;;11.20;69.50;;;;;;5116984;27;20085;-69
2022/10/13 00:38:10;;;;;;;;;;;11.20;69.60;;;;;;5150433;27;20035;-69
2022/10/13 00:40:52;;;;;;;19.52;11.15;;;11.10;69.30;;;;;;5117381;27;19923;-69
2022/10/13 00:43:19;;;;;;;20.38;11.73;;;11.10;69.60;;;;;;5133787;27;20039;-69
2022/10/13 00:45:48;;;;;;;17.70;10.80;;;11.10;69.60;;;;;;5144022;27;20090;-69
2022/10/13 00:48:14;;;;;;;20.35;11.32;;;11.10;69.70;;;;;;5133711;27;20092;-69
2022/10/13 00:50:41;;;;;;;21.15;11.55;;;11.10;69.70;;;;;;5133777;27;20048;-69
2022/10/13 00:53:10;;;;;;;16.02;10.98;;;11.10;69.80;;;;;;5133665;27;21002;-69
2022/10/13 00:55:38;;;;;;;23.45;12.63;;;11.10;69.80;;;;;;5133885;27;20033;-69
2022/10/13 00:58:06;;;;;;;19.75;11.98;;;11.10;69.90;;;;;;5133100;27;20043;-69
2022/10/13 01:00:33;;;;;;;16.48;10.23;;;11.20;70.00;;;;;;5134055;27;20474;-69
2022/10/13 01:03:02;;;;;;;19.05;9.57;;;11.10;70.00;;;;;;5133847;27;20639;-69
2022/10/13 01:05:29;;;;;;;14.48;8.63;;;11.10;70.00;;;;;;5133397;27;20431;-69
2022/10/13 01:07:56;;;;;;;18.73;12.32;;;11.20;70.10;;;;;;5133495;27;20035;-69
2022/10/13 01:10:50;;;;;;;20.83;12.85;;;11.20;70.10;;;;;;5133497;27;20054;-69
2022/10/13 01:13:26;;;;;;;14.25;11.05;;;11.20;70.20;;;;;;5132894;27;20401;-69
2022/10/13 01:16:04;;;;;;;19.92;12.10;;;11.20;70.20;;;;;;5133287;27;20035;-69
2022/10/13 01:18:56;;;;;;;17.95;11.15;;;11.20;70.30;;;;;;5115210;27;20122;-69
2022/10/13 01:21:40;;;;;;;20.95;12.10;;;11.20;70.80;;;;;;5132938;27;20138;-69
2022/10/13 01:24:14;;;;;;;20.13;12.82;;;11.10;70.40;;;;;;5138060;27;20396;-69
2022/10/13 01:26:52;;;;;;;21.77;13.48;;;11.20;70.50;;;;;;5149407;27;20104;-69
2022/10/13 01:29:55;;;;;;;18.92;13.30;;;11.10;70.50;;;;;;5133059;27;20134;-69
2022/10/13 01:32:46;;;;;;;21.27;12.43;;;11.10;70.50;;;;;;5132884;27;20047;-69
2022/10/13 01:35:55;;;;;;;22.35;13.68;;;11.10;70.60;;;;;;5132530;27;20084;-69
2022/10/13 01:38:44;;;;;;;20.70;12.45;;;11.10;70.70;;;;;;5123116;27;20051;-69
2022/10/13 01:41:20;;;;;;;21.30;13.43;;;11.00;70.60;;;;;;5132267;27;20032;-69
2022/10/13 01:43:54;;;;;;;26.17;14.55;;;11.00;70.70;;;;;;5131853;27;20528;-69
2022/10/13 01:46:25;;;;;;;18.42;12.60;;;11.00;70.90;;;;;;5136387;27;20531;-69
2022/10/13 01:48:54;;;;;;;18.80;12.75;;;11.00;70.90;;;;;;5132756;27;20043;-69
2022/10/13 01:51:22;;;;;;;18.13;12.80;;;10.90;71.00;;;;;;5132249;27;20066;-69
2022/10/13 01:53:48;;;;;;;19.27;12.23;;;10.90;71.10;;;;;;5131499;27;20058;-69
2022/10/13 01:56:14;;;;;;;15.98;10.77;;;10.90;71.20;;;;;;5132994;27;20110;-69
2022/10/13 01:58:40;;;;;;;18.00;10.95;;;10.90;71.20;;;;;;5132237;27;20566;-69
2022/10/13 02:01:53;;;;;;;18.15;12.38;;;10.90;71.20;;;;;;5132696;27;20084;-69
2022/10/13 02:04:25;;;;;;;19.55;12.68;;;10.90;71.20;;;;;;5130031;27;20072;-69
2022/10/13 02:07:05;;;;;;;14.60;10.65;;;10.90;71.20;;;;;;5132383;27;20095;-69
2022/10/13 02:09:42;;;;;;;17.83;12.88;;;11.00;71.30;;;;;;5132054;27;20050;-69
2022/10/13 02:12:24;;;;;;;22.67;13.75;;;10.90;71.20;;;;;;5132194;27;20035;-69
2022/10/13 02:14:52;;;;;;;19.55;13.55;;;11.00;71.30;;;;;;5139568;27;20031;-69
2022/10/13 02:17:19;;;;;;;16.73;12.32;;;11.00;71.30;;;;;;5132266;27;20043;-69
2022/10/13 02:19:45;;;;;;;20.38;13.35;;;11.00;71.40;;;;;;5131875;27;20050;-69
2022/10/13 02:22:13;;;;;;;16.80;11.80;;;11.00;71.40;;;;;;5132316;27;20047;-69
2022/10/13 02:24:39;;;;;;;19.88;11.60;;;11.00;71.40;;;;;;5131670;27;20378;-69
2022/10/13 02:27:06;;;;;;;13.80;9.55;;;11.00;71.40;;;;;;5131921;27;20072;-69
2022/10/13 02:29:32;;;;;;;16.70;11.30;;;11.00;71.40;;;;;;5131833;27;20045;-69
2022/10/13 02:31:57;;;;;;;23.58;13.32;;;11.00;71.50;;;;;;5148142;27;20035;-69
2022/10/13 02:34:23;;;;;;;19.75;12.70;;;11.10;72.00;;;;;;5137962;27;20035;-69
2022/10/13 02:36:49;;;;;;;19.05;12.15;;;11.00;71.60;;;;;;5114183;27;20065;-69
2022/10/13 02:39:16;;;;;;;20.40;13.05;;;11.10;71.70;;;;;;5131827;27;20038;-69
2022/10/13 02:41:42;;;;;;;21.10;13.50;;;11.10;71.80;;;;;;5131893;27;20038;-69
2022/10/13 02:44:08;;;;;;;22.23;14.63;;;11.10;71.90;;;;;;5131645;27;20042;-69
2022/10/13 02:46:34;;;;;;;24.85;13.38;;;11.10;72.10;;;;;;5131775;27;20035;-69
2022/10/13 02:49:00;;;;;;;24.50;14.75;;;11.10;72.20;;;;;;5143079;27;20035;-69
2022/10/13 02:51:26;;;;;;;23.10;15.38;;;11.10;72.40;;;;;;5131109;27;20077;-69
2022/10/13 02:53:52;;;;;;;21.52;14.30;;;11.10;72.40;;;;;;5122656;27;20479;-69
2022/10/13 02:56:18;;;;;;;19.75;14.90;;;11.10;72.70;;;;;;5131748;27;20035;-69
2022/10/13 02:58:43;;;;;;;22.17;14.07;;;11.00;72.70;;;;;;5131222;27;20031;-69
2022/10/13 03:01:12;;;;;;;23.52;13.15;;;11.00;72.90;;;;;;5131586;27;20386;-69
2022/10/13 03:03:38;;;;;;;22.20;14.65;;;11.00;73.10;;;;;;5141255;27;20084;-69
2022/10/13 03:06:05;;;;;;;20.75;15.05;;;11.00;73.10;;;;;;5131583;27;20027;-69
2022/10/13 03:08:32;;;;;;;23.52;15.88;;;11.00;73.20;;;;;;5131419;27;20494;-69
2022/10/13 03:10:58;;;;;;;27.95;15.63;;;11.00;73.30;;;;;;5131449;28;20123;-69
2022/10/13 03:13:24;;;;;;;17.38;12.27;;;11.00;73.40;;;;;;5130933;27;20071;-69
2022/10/13 03:15:50;;;;;;;17.85;13.90;;;11.00;73.40;;;;;;5119773;28;20032;-69
2022/10/13 03:18:15;;;;;;;18.52;14.18;;;11.00;73.50;;;;;;5131407;28;20031;-69
2022/10/13 03:20:41;;;;;;;20.05;15.10;;;11.00;73.50;;;;;;5147946;27;20034;-69
2022/10/13 03:23:07;;;;;;;24.73;15.65;;;11.00;73.70;;;;;;5135160;27;20068;-69
2022/10/13 03:25:34;;;;;;;20.15;14.35;;;11.00;73.80;;;;;;5153014;27;20027;-69
2022/10/13 03:27:59;;;;;;;23.88;15.10;;;11.00;73.90;;;;;;5135657;27;20104;-67
2022/10/13 03:30:25;;;;;;;20.27;14.30;;;11.00;74.00;;;;;;5134915;27;20040;-67
2022/10/13 03:32:52;;;;;;;23.52;14.05;;;11.00;74.10;;;;;;5135272;27;20039;-69
2022/10/13 03:35:17;;;;;;;22.48;15.10;;;11.00;74.20;;;;;;5135335;27;20039;-69
2022/10/13 03:37:43;;;;;;;22.95;16.27;;;11.00;74.30;;;;;;5135184;27;20375;-69
2022/10/13 03:40:09;;;;;;;23.98;15.55;;;11.00;74.30;;;;;;5134964;27;20110;-69
2022/10/13 03:42:36;;;;;;;24.77;15.77;;;11.00;74.40;;;;;;5135356;27;20138;-69
2022/10/13 03:45:03;;;;;;;24.90;16.45;;;11.00;74.60;;;;;;5134812;27;20130;-69
2022/10/13 03:47:29;;;;;;;22.20;15.20;;;11.00;74.60;;;;;;5152351;27;20030;-69
2022/10/13 03:49:55;;;;;;;22.83;15.82;;;11.00;74.70;;;;;;5134701;27;20080;-69
2022/10/13 03:52:21;;;;;;;25.30;16.17;;;11.00;74.80;;;;;;5134740;27;20055;-69
2022/10/13 03:54:47;;;;;;;28.02;17.20;;;11.00;74.80;;;;;;5141626;27;20441;-69
2022/10/13 03:57:13;;;;;;;20.85;14.57;;;11.00;75.00;;;;;;5117544;27;20043;-69
2022/10/13 03:59:39;;;;;;;23.33;15.82;;;11.00;75.10;;;;;;5139755;27;20087;-69
2022/10/13 04:02:06;;;;;;;23.70;16.35;;;11.00;75.30;;;;;;5134746;27;20062;-69
2022/10/13 04:04:32;;;;;;;20.52;13.90;;;11.00;75.40;;;;;;5134519;27;20035;-69
2022/10/13 04:06:57;;;;;;;15.30;11.55;;;11.00;75.50;;;;;;5117630;27;20126;-69
2022/10/13 04:09:23;;;;;;;21.08;15.63;;;11.00;75.50;;;;;;5134368;27;20173;-69
2022/10/13 04:11:52;;;;;;;21.27;14.32;;;11.00;75.50;;;;;;5117478;27;20122;-69
2022/10/13 04:14:18;;;;;;;23.73;17.38;;;11.00;75.50;;;;;;5134532;27;20036;-69
2022/10/13 04:16:45;;;;;;;18.83;13.70;;;11.10;75.60;;;;;;5117290;27;20478;-69
2022/10/13 04:19:13;;;;;;;18.90;14.02;;;11.10;75.70;;;;;;5134256;27;20067;-69
2022/10/13 04:21:40;;;;;;;24.42;16.58;;;11.10;75.70;;;;;;5117539;27;20054;-70
2022/10/13 04:24:06;;;;;;;19.60;13.95;;;11.10;75.80;;;;;;5134057;27;20074;-69
2022/10/13 04:26:34;;;;;;;25.52;16.27;;;11.10;75.90;;;;;;5134178;27;20078;-69
2022/10/13 04:29:03;;;;;;;27.50;17.98;;;11.10;75.90;;;;;;5131604;27;20031;-69
2022/10/13 04:31:29;;;;;;;19.75;14.98;;;11.20;76.00;;;;;;5134221;27;20070;-69
2022/10/13 04:33:56;;;;;;;18.02;13.57;;;11.20;76.10;;;;;;5132958;27;20385;-67
2022/10/13 04:36:22;;;;;;;17.42;13.52;;;11.20;76.10;;;;;;5133861;27;20037;-67
2022/10/13 04:38:47;;;;;;;21.33;15.05;;;11.20;76.10;;;;;;5116897;27;20031;-67
2022/10/13 04:41:14;;;;;;;25.45;16.10;;;11.30;76.20;;;;;;5133866;27;20506;-69
2022/10/13 04:43:40;;;;;;;24.73;17.95;;;11.30;76.20;;;;;;5133658;27;20185;-69
2022/10/13 04:46:11;;;;;;;24.40;16.08;;;11.30;76.20;;;;;;5133930;27;20114;-69
2022/10/13 04:48:37;;;;;;;25.30;16.98;;;11.30;76.30;;;;;;5117028;27;20066;-69
2022/10/13 04:51:06;;;;;;;26.88;17.98;;;11.30;76.30;;;;;;5133762;27;20427;-69
2022/10/13 04:53:32;;;;;;;24.42;17.77;;;11.40;76.50;;;;;;5133620;27;20043;-70
2022/10/13 04:56:03;;;;;;;19.38;14.75;;;11.40;76.50;;;;;;5134992;27;20079;-69
2022/10/13 04:58:29;;;;;;;23.30;16.50;;;11.40;76.70;;;;;;5133870;27;20031;-69
2022/10/13 05:00:55;;;;;;;24.73;16.75;;;11.40;76.60;;;;;;5133984;27;20435;-69
2022/10/13 05:03:20;;;;;;;25.50;17.13;;;11.40;76.60;;;;;;5132736;27;20126;-69
2022/10/13 05:05:46;;;;;;;25.20;17.73;;;11.40;76.60;;;;;;5133489;27;20053;-70
2022/10/13 05:08:12;;;;;;;26.70;18.20;;;11.40;76.60;;;;;;5134678;27;20072;-69
2022/10/13 05:10:37;;;;;;;21.17;16.17;;;11.50;76.70;;;;;;5117937;27;20047;-67
2022/10/13 05:13:03;;;;;;;23.08;17.30;;;11.50;76.70;;;;;;5134640;27;20033;-67
2022/10/13 05:15:29;;;;;;;25.20;17.25;;;11.50;76.80;;;;;;5151924;27;20039;-71
2022/10/13 05:17:54;;;;;;;22.27;15.77;;;11.50;76.80;;;;;;5150482;27;20126;-71
2022/10/13 05:20:20;;;;;;;22.40;16.50;;;11.50;76.70;;;;;;5134573;27;20035;-70
2022/10/13 05:22:46;;;;;;;23.25;17.30;;;11.50;76.60;;;;;;5128549;27;20045;-73
2022/10/13 05:25:11;;;;;;;25.25;17.25;;;11.50;76.60;;;;;;5145359;27;20035;-71
2022/10/13 05:27:37;;;;;;;21.77;15.93;;;11.50;76.60;;;;;;5151474;27;20080;-71
2022/10/13 05:30:03;;;;;;;25.70;17.60;;;11.50;76.60;;;;;;5117420;27;20093;-71
2022/10/13 05:32:29;;;;;;;23.17;16.80;;;11.50;76.60;;;;;;5117166;27;20039;-71
2022/10/13 05:34:54;;;;;;;21.98;16.35;;;11.50;76.60;;;;;;5117247;27;20051;-72
2022/10/13 05:37:21;;;;;;;24.90;17.15;;;11.60;76.70;;;;;;5134193;27;20039;-73
2022/10/13 05:39:47;;;;;;;24.75;16.80;;;11.60;76.70;;;;;;5100056;27;20039;-72
2022/10/13 05:42:13;;;;;;;27.50;18.27;;;11.60;76.70;;;;;;5134115;27;20050;-73
2022/10/13 05:44:39;;;;;;;26.10;18.13;;;11.60;76.70;;;;;;5133586;27;20126;-73
2022/10/13 05:47:05;;;;;;;24.27;18.23;;;11.60;76.80;;;;;;5133922;27;20039;-72
2022/10/13 05:49:30;;;;;;;25.83;17.33;;;11.60;76.80;;;;;;5116984;27;20039;-72
2022/10/13 05:52:01;;;;;;;24.00;17.08;;;11.60;76.90;;;;;;5099618;27;20053;-72
2022/10/13 05:54:34;;;;;;;24.80;17.77;;;11.60;77.10;;;;;;5133504;27;20547;-72
2022/10/13 05:57:02;;;;;;;27.50;18.52;;;11.60;77.00;;;;;;5116881;27;20039;-72
2022/10/13 05:59:32;;;;;;;24.83;18.45;;;11.60;77.10;;;;;;5116620;27;20490;-73
2022/10/13 06:01:59;;;;;;;27.23;18.77;;;11.60;77.10;;;;;;5116571;27;20516;-73
2022/10/13 06:04:38;;;;;;;23.85;17.27;;;11.60;77.20;;;;;;5116848;27;20043;-72
2022/10/13 06:07:05;;;;;;;25.52;18.60;;;11.70;77.30;;;;;;5133611;27;20047;-72
2022/10/13 06:09:34;;;;;;;27.60;19.02;;;11.70;77.30;;;;;;5133516;27;20081;-72
2022/10/13 06:12:00;;;;;;;28.45;18.25;;;11.70;77.40;;;;;;5116425;27;20070;-76
2022/10/13 06:14:26;;;;;;;25.10;19.85;;;11.70;77.40;;;;;;5116444;27;20066;-73
2022/10/13 06:16:51;;;;;;;25.17;17.40;;;11.70;77.50;;;;;;5143641;27;20081;-73
2022/10/13 06:19:17;;;;;;;22.17;16.67;;;11.70;77.60;;;;;;5114542;27;20080;-73
2022/10/13 06:21:42;;;;;;;24.80;17.67;;;11.70;77.60;;;;;;5133322;27;20043;-73
2022/10/13 06:24:08;;;;;;;25.27;17.23;;;11.70;77.60;;;;;;5115443;27;20038;-72
2022/10/13 06:26:34;;;;;;;23.42;17.17;;;11.70;77.60;;;;;;5114616;27;20043;-72
2022/10/13 06:29:00;;;;;;;24.30;17.27;;;11.70;77.70;;;;;;5149639;27;20068;-68
2022/10/13 06:31:26;;;;;;;26.98;18.85;;;11.70;77.70;;;;;;5133367;27;20130;-68
2022/10/13 06:33:51;;;;;;;23.80;17.90;;;11.80;77.90;;;;;;5133117;27;20031;-68
2022/10/13 06:36:17;;;;;;;26.10;18.85;;;11.80;77.90;;;;;;5150376;27;20103;-68
2022/10/13 06:38:42;;;;;;;25.90;18.20;;;11.80;77.90;;;;;;5150152;27;20039;-68
2022/10/13 06:41:08;;;;;;;29.85;18.83;;;11.80;78.00;;;;;;5150268;27;20031;-68
2022/10/13 06:43:34;;;;;;;31.58;19.63;;;11.80;78.00;;;;;;5150432;27;20031;-68
2022/10/13 06:46:00;;;;;;;24.77;18.50;;;11.80;78.10;;;;;;5132828;27;20042;-69
2022/10/13 06:48:27;;;;;;;25.83;17.92;;;11.90;78.10;;;;;;5150123;27;20104;-68
2022/10/13 06:50:53;;;;;;;25.10;18.33;;;11.90;78.20;;;;;;5132557;27;20087;-68
2022/10/13 06:53:19;;;;;;;23.85;16.90;;;11.90;78.30;;;;;;5132632;27;20051;-68
2022/10/13 06:55:45;;;;;;;27.67;19.15;;;11.90;78.20;;;;;;5132259;27;20038;-68
2022/10/13 06:58:10;;;;;;;26.63;18.42;;;11.90;78.20;;;;;;5150147;27;20428;-68
2022/10/13 07:00:38;;;;;;;24.80;18.17;;;11.90;78.30;;;;;;5150012;27;20424;-69
2022/10/13 07:03:04;;;;;;;25.85;19.90;;;11.90;78.30;;;;;;5133000;27;20031;-69
2022/10/13 07:05:30;;;;;;;29.85;19.35;;;12.00;78.30;;;;;;5150168;27;20072;-68
2022/10/13 07:07:56;;;;;;;28.02;19.48;;;12.00;78.50;;;;;;5132961;27;20386;-68
2022/10/13 07:10:22;;;;;;;28.70;18.70;;;12.00;78.50;;;;;;5150075;27;20129;-68
2022/10/13 07:12:48;;;;;;;28.80;20.20;;;12.00;78.50;;;;;;5132530;28;20039;-68
2022/10/13 07:15:13;;;;;;;26.60;18.30;;;12.00;78.60;;;;;;5149771;27;20042;-68
2022/10/13 07:17:39;;;;;;;24.40;19.35;;;12.00;78.80;;;;;;5132739;27;20035;-68
2022/10/13 07:20:06;;;;;;;26.15;19.15;;;12.00;78.80;;;;;;5132828;27;20126;-68
2022/10/13 07:22:31;;;;;;;25.98;17.00;;;12.10;79.00;;;;;;5132374;27;20114;-68
2022/10/13 07:24:57;;;;;;;26.35;18.95;;;12.10;79.00;;;;;;5149646;27;20130;-68
2022/10/13 07:27:23;;;;;;;26.45;20.17;;;12.10;79.10;;;;;;5132327;27;20039;-68
2022/10/13 07:29:49;;;;;;;29.38;18.88;;;12.10;79.10;;;;;;5132725;27;20050;-68
2022/10/13 07:32:15;;;;;;;28.80;17.90;;;12.10;79.20;;;;;;5149682;27;20176;-68
2022/10/13 07:34:40;;;;;;;27.50;19.27;;;12.10;79.20;;;;;;5132274;28;20394;-68
2022/10/13 07:37:06;;;;;;;32.35;19.70;;;12.20;79.30;;;;;;5149640;27;20047;-68
2022/10/13 07:39:31;;;;;;;29.88;19.50;;;12.20;79.30;;;;;;5115301;28;20042;-68
2022/10/13 07:41:57;;;;;;;28.25;19.05;;;12.30;79.50;;;;;;5149606;27;20042;-68
2022/10/13 07:44:23;;;;;;;28.35;19.90;;;12.30;79.60;;;;;;5149879;27;20083;-68
2022/10/13 07:46:48;;;;;;;27.13;19.92;;;12.30;79.70;;;;;;5132346;27;20486;-68
2022/10/13 07:49:14;;;;;;;30.63;20.35;;;12.30;79.80;;;;;;5132289;28;20074;-69
2022/10/13 07:51:40;;;;;;;28.15;20.33;;;12.40;79.90;;;;;;5131951;27;20089;-69
2022/10/13 07:54:06;;;;;;;24.38;19.02;;;12.40;80.00;;;;;;5149294;27;20050;-68
2022/10/13 07:56:32;;;;;;;22.30;15.68;;;12.40;80.10;;;;;;5132208;28;20032;-69
2022/10/13 07:58:57;;;;;;;25.92;18.83;;;12.50;80.20;;;;;;5132232;27;20035;-69
2022/10/13 08:01:23;;;;;;;27.17;18.52;;;12.50;80.20;;;;;;5149462;27;20080;-69
2022/10/13 08:03:49;;;;;;;25.92;19.60;;;12.50;80.20;;;;;;5149390;27;20035;-69
2022/10/13 08:06:14;;;;;;;26.63;20.30;;;12.60;80.40;;;;;;5149624;27;20046;-69
2022/10/13 08:08:40;;;;;;;30.92;20.83;;;12.60;80.40;;;;;;5152181;27;20035;-69
2022/10/13 08:11:12;;;;;;;27.08;19.33;;;12.70;80.50;;;;;;5153147;27;20042;-69
2022/10/13 08:13:37;;;;;;;26.13;17.73;;;12.70;80.60;;;;;;5119043;27;20035;-69
2022/10/13 08:16:03;;;;;;;28.88;20.83;;;12.80;80.50;;;;;;5135889;27;20530;-69
2022/10/13 08:18:29;;;;;;;33.85;20.92;;;12.80;80.50;;;;;;5135794;27;20062;-69
2022/10/13 08:20:58;;;;;;;29.45;19.05;;;12.80;80.50;;;;;;5153054;27;20046;-69
2022/10/13 08:23:24;;;;;;;26.45;20.00;;;12.90;80.50;;;;;;5136009;27;20039;-69
2022/10/13 08:25:50;;;;;;;26.95;20.27;;;12.90;80.90;;;;;;5152817;27;20517;-69
2022/10/13 08:28:21;;;;;;;24.00;18.63;;;13.00;80.50;;;;;;5118456;27;20107;-69
2022/10/13 08:30:47;;;;;;;29.13;20.88;;;13.00;80.50;;;;;;5135616;27;20049;-69
2022/10/13 08:33:13;;;;;;;28.30;20.33;;;13.10;80.40;;;;;;5118408;27;20500;-69
2022/10/13 08:35:39;;;;;;;31.58;21.30;;;13.10;80.80;;;;;;5135783;27;20488;-69
2022/10/13 08:38:04;;;;;;;30.60;21.27;;;13.10;80.30;;;;;;5135689;27;20413;-69
2022/10/13 08:40:30;;;;;;;30.95;21.42;;;13.20;80.30;;;;;;5152668;27;20486;-69
2022/10/13 08:42:57;;;;;;;35.00;22.58;;;13.20;80.30;;;;;;5135393;27;20065;-69
2022/10/13 08:45:26;;;;;;;29.95;21.45;;;13.20;80.20;;;;;;5135354;27;20047;-69
2022/10/13 08:48:04;;;;;;;32.03;20.65;;;13.20;80.60;;;;;;5135223;27;20039;-69
2022/10/13 08:50:34;;;;;;;28.83;21.00;;;13.30;80.10;;;;;;5135262;27;20084;-69
2022/10/13 08:53:23;;;;;;;25.73;19.02;;;13.30;80.10;;;;;;5117803;27;20054;-69
2022/10/13 08:56:06;;;;;;;29.27;21.20;;;13.30;80.00;;;;;;5135291;27;20477;-69
2022/10/13 08:58:34;;;;;;;24.70;19.50;;;13.30;80.00;;;;;;5135262;27;20531;-69
2022/10/13 09:01:11;;;;;;;28.02;20.73;;;13.30;80.00;;;;;;5135323;27;20393;-69
2022/10/13 09:03:48;;;;;;;26.30;20.27;;;13.40;80.00;;;;;;5134939;27;20112;-69
2022/10/13 09:06:27;;;;;;;25.98;19.65;;;13.40;80.00;;;;;;5134828;27;20041;-69
2022/10/13 09:09:05;;;;;;;23.20;19.88;;;13.40;79.90;;;;;;5134877;27;20123;-69
2022/10/13 09:11:34;;;;;;;27.88;20.48;;;13.40;79.90;;;;;;5135023;27;20047;-69
2022/10/13 09:14:04;;;;;;;27.67;20.90;;;13.50;79.90;;;;;;5134733;27;20035;-69
2022/10/13 09:16:36;;;;;;;25.95;20.17;;;13.50;79.90;;;;;;5134732;27;20035;-69
2022/10/13 09:19:21;;;;;;;26.20;20.40;;;13.50;80.00;;;;;;5133902;27;20039;-69
2022/10/13 09:21:53;;;;;;;30.38;21.38;;;13.50;80.10;;;;;;5151903;27;20043;-68
2022/10/13 09:24:22;;;;;;;27.40;22.23;;;13.60;80.70;;;;;;5134455;27;20501;-69
2022/10/13 09:26:51;;;;;;;27.75;20.63;;;13.60;80.30;;;;;;5134417;27;20131;-69
2022/10/13 09:29:25;;;;;;;26.02;20.77;;;13.70;80.30;;;;;;5134741;27;20038;-69
2022/10/13 09:32:06;;;;;;;26.77;20.52;;;13.70;80.50;;;;;;5117066;27;20042;-69
2022/10/13 09:34:32;;;;;;;25.38;18.75;;;13.70;80.40;;;;;;5134368;27;20118;-69
2022/10/13 09:37:03;;;;;;;28.02;21.98;;;13.80;80.40;;;;;;5117315;27;20103;-69
2022/10/13 09:39:30;;;;;;;28.15;21.80;;;13.80;80.40;;;;;;5117116;27;20043;-69
2022/10/13 09:42:26;;;;;;;25.77;20.08;;;13.90;80.30;;;;;;5134345;27;20126;-69
2022/10/13 09:45:01;;;;;;;26.08;21.42;;;13.90;80.10;;;;;;5117123;27;20055;-69
2022/10/13 09:47:29;;;;;;;26.73;20.77;;;13.90;80.10;;;;;;5116896;27;20554;-69
2022/10/13 09:50:15;;;;;;;30.77;22.15;;;13.90;79.90;;;;;;5116843;27;20043;-69
2022/10/13 09:52:41;;;;;;;25.92;20.13;;;13.90;79.60;;;;;;5133744;27;20059;-68
2022/10/13 09:55:27;;;;;;;27.77;20.83;;;13.90;79.90;;;;;;5133886;27;20039;-68
2022/10/13 09:57:55;;;;;;;30.10;20.45;;;14.00;79.30;;;;;;5133813;27;20043;-68
2022/10/13 10:00:27;;;;;;;26.02;20.75;;;14.00;79.20;;;;;;5116677;27;20073;-68
2022/10/13 10:03:02;;;;;;;25.60;19.60;;;14.00;79.10;;;;;;5116695;27;20039;-68
2022/10/13 10:05:50;;;;;;;32.17;22.27;;;14.00;79.10;;;;;;5133751;27;20032;-68
2022/10/13 10:08:45;;;;;;;26.38;22.58;;;14.00;79.10;;;;;;5133678;27;20054;-68
2022/10/13 10:11:15;;;;;;;29.50;22.23;;;14.00;79.10;;;;;;5133592;27;20043;-68
2022/10/13 10:13:40;;;;;;;28.88;21.13;;;14.00;79.10;;;;;;5133561;27;20495;-68
2022/10/13 10:16:37;;;;;;;26.77;20.67;;;14.00;79.20;;;;;;5116699;27;20054;-68
2022/10/13 10:19:09;;;;;;;23.52;19.38;;;14.10;79.10;;;;;;5132183;27;20054;-68
2022/10/13 10:22:02;;;;;;;27.85;23.30;;;14.10;79.20;;;;;;5150634;27;20064;-68
2022/10/13 10:24:59;;;;;;;25.45;19.92;;;14.10;79.10;;;;;;5133514;27;20446;-68
2022/10/13 10:27:40;;;;;;;28.73;21.60;;;14.10;79.10;;;;;;5133382;27;20394;-68
2022/10/13 10:30:17;;;;;;;28.17;21.80;;;14.20;79.20;;;;;;5133138;27;20039;-68
2022/10/13 10:32:56;;;;;;;27.90;22.80;;;14.10;79.20;;;;;;5133134;27;20039;-68
2022/10/13 10:35:25;;;;;;;32.92;23.65;;;14.20;79.30;;;;;;5150436;27;20042;-68
2022/10/13 10:38:06;;;;;;;24.85;21.40;;;14.20;79.30;;;;;;5150360;27;20035;-68
2022/10/13 10:40:44;;;;;;;29.88;25.10;;;14.20;79.30;;;;;;5150376;27;20074;-68
2022/10/13 10:43:50;;;;;;;26.60;21.80;;;14.20;79.30;;;;;;5150223;27;20035;-68
2022/10/13 10:46:22;;;;;;;29.02;23.35;;;14.20;79.20;;;;;;5132939;27;20074;-68
2022/10/13 10:48:53;;;;;;;24.48;20.67;;;14.30;79.40;;;;;;5132837;27;20047;-68
2022/10/13 10:51:31;;;;;;;25.95;22.73;;;14.30;79.40;;;;;;5132609;27;20149;-68
2022/10/13 10:54:26;;;;;;;24.30;20.45;;;14.30;79.30;;;;;;5132729;27;20479;-68
2022/10/13 10:57:15;;;;;;;30.98;22.85;;;14.30;79.10;;;;;;5104059;27;20053;-68
2022/10/13 11:00:14;;;;;;;29.83;23.63;;;14.40;79.00;;;;;;5132627;27;20038;-68
2022/10/13 11:02:58;;;;;;;26.52;21.95;;;14.40;78.90;;;;;;5132783;27;20489;-68
2022/10/13 11:05:24;;;;;;;24.17;21.58;;;14.40;79.00;;;;;;5150005;27;20457;-69
2022/10/13 11:07:49;;;;;;;35.42;26.48;;;14.40;78.90;;;;;;5150150;27;20125;-70
2022/10/13 11:10:20;;;;;;;35.63;28.00;;;14.40;78.90;;;;;;5132610;27;20043;-71
2022/10/13 11:12:52;;;;;;;29.13;25.95;;;14.50;79.20;;;;;;5132723;27;20440;-70
2022/10/13 11:15:30;;;;;;;34.05;28.67;;;14.50;79.40;;;;;;5132579;27;20039;-69
2022/10/13 11:17:56;;;;;;;31.75;27.50;;;14.50;79.50;;;;;;5115460;27;20067;-69
2022/10/13 11:20:24;;;;;;;29.70;24.95;;;14.60;79.70;;;;;;5132911;27;20129;-69
2022/10/13 11:23:16;;;;;;;32.50;25.95;;;14.60;79.80;;;;;;5132628;28;20039;-69
2022/10/13 11:25:45;;;;;;;32.58;27.08;;;14.70;79.90;;;;;;5132194;27;20046;-70
2022/10/13 11:28:20;;;;;;;30.45;26.20;;;14.70;80.10;;;;;;5115420;27;20097;-69
2022/10/13 11:31:16;;;;;;;32.90;25.77;;;14.80;80.20;;;;;;5132785;27;20055;-69
2022/10/13 11:33:43;;;;;;;29.88;25.88;;;14.80;80.10;;;;;;5149458;27;20051;-70
2022/10/13 11:36:27;;;;;;;36.80;28.50;;;14.90;79.90;;;;;;5132408;27;20054;-68
2022/10/13 11:39:14;;;;;;;35.17;25.60;;;14.90;79.60;;;;;;5149619;27;20084;-68
2022/10/13 11:42:18;;;;;;;32.70;27.70;;;14.90;79.50;;;;;;5115267;27;20487;-69
2022/10/13 11:44:44;;;;;;;32.38;26.73;;;15.00;79.20;;;;;;5134079;27;20087;-69
2022/10/13 11:47:41;;;;;;;32.42;27.85;;;15.00;79.20;;;;;;5136473;27;20475;-70
2022/10/13 11:50:06;;;;;;;33.03;27.55;;;15.00;78.90;;;;;;5153686;27;20035;-70
2022/10/13 11:52:58;;;;;;;38.58;29.75;;;15.00;78.90;;;;;;5153305;27;20054;-68
2022/10/13 11:55:49;;;;;;;33.60;28.90;;;15.00;78.40;;;;;;5153549;27;20035;-69
2022/10/13 11:58:27;;;;;;;29.40;25.58;;;15.00;78.30;;;;;;5136171;27;20043;-69
2022/10/13 12:01:10;;;;;;;28.58;25.48;;;15.00;78.20;;;;;;5136220;27;20042;-69
2022/10/13 12:03:39;;;;;;;33.15;27.70;;;15.00;78.00;;;;;;5136126;27;20047;-69
2022/10/13 12:06:21;;;;;;;30.83;25.83;;;15.00;78.10;;;;;;5136131;27;20084;-69
2022/10/13 12:08:49;;;;;;;27.23;22.45;;;15.00;78.10;;;;;;5136128;27;20039;-70
2022/10/13 12:11:33;;;;;;;29.65;26.02;;;15.00;78.00;;;;;;5135969;27;20055;-67
2022/10/13 12:14:00;;;;;;;29.58;24.98;;;15.00;78.00;;;;;;5118758;27;20047;-67
2022/10/13 12:16:27;;;;;;;28.55;24.88;;;15.00;78.20;;;;;;5136186;27;20490;-67
2022/10/13 12:18:52;;;;;;;27.05;23.65;;;15.00;78.30;;;;;;5136101;27;20394;-68
2022/10/13 12:21:21;;;;;;;28.25;25.27;;;15.00;78.30;;;;;;5153007;27;20039;-68
2022/10/13 12:23:51;;;;;;;23.17;20.83;;;15.00;78.50;;;;;;5135610;27;20066;-68
2022/10/13 12:26:19;;;;;;;23.42;20.23;;;15.00;78.50;;;;;;5135520;27;20509;-68
2022/10/13 12:28:55;;;;;;;20.92;18.67;;;15.00;78.40;;;;;;5118448;27;20080;-69
2022/10/13 12:31:24;;;;;;;21.90;19.70;;;15.00;78.30;;;;;;5135504;27;20039;-69
2022/10/13 12:33:58;;;;;;;21.88;18.55;;;15.00;78.30;;;;;;5135837;27;20035;-69
2022/10/13 12:36:33;;;;;;;23.83;21.33;;;15.10;78.20;;;;;;5135794;27;20031;-69
2022/10/13 12:39:10;;;;;;;24.58;21.10;;;15.10;78.10;;;;;;5135370;27;20031;-69
2022/10/13 12:41:40;;;;;;;22.95;19.92;;;15.10;78.10;;;;;;5135576;27;20039;-70
2022/10/13 12:44:12;;;;;;;21.05;18.90;;;15.10;78.10;;;;;;5135667;27;20039;-70
2022/10/13 12:46:41;;;;;;;21.85;19.55;;;15.10;78.20;;;;;;5135558;27;20478;-69